sensor_id;sensor_type;location;lat;lon;timestamp;pressure;altitude;pressure_sealevel;temperature;humidity
75996;BME280;64681;49.738;9.004;2023-04-03T00:01:33;100477.69;;;1.49;75.87
75996;BME280;64681;49.738;9.004;2023-04-03T00:03:59;100477.03;;;1.59;74.85
75996;BME280;64681;49.738;9.004;2023-04-03T00:06:25;100464.72;;;1.82;72.94
75996;BME280;64681;49.738;9.004;2023-04-03T00:08:52;100472.66;;;1.87;72.84
75996;BME280;64681;49.738;9.004;2023-04-03T00:11:18;100468.44;;;1.86;72.66
75996;BME280;64681;49.738;9.004;2023-04-03T00:13:45;100470.56;;;1.67;73.76
75996;BME280;64681;49.738;9.004;2023-04-03T00:16:11;100464.31;;;1.73;73.59
75996;BME280;64681;49.738;9.004;2023-04-03T00:18:38;100462.97;;;1.70;73.72
75996;BME280;64681;49.738;9.004;2023-04-03T00:21:05;100470.97;;;1.76;73.84
75996;BME280;64681;49.738;9.004;2023-04-03T00:23:31;100467.69;;;1.68;74.30
75996;BME280;64681;49.738;9.004;2023-04-03T00:25:57;100472.31;;;1.78;73.32
75996;BME280;64681;49.738;9.004;2023-04-03T00:28:23;100477.63;;;1.83;73.98
75996;BME280;64681;49.738;9.004;2023-04-03T00:30:49;100479.69;;;1.59;74.99
75996;BME280;64681;49.738;9.004;2023-04-03T00:33:15;100476.88;;;1.49;75.23
75996;BME280;64681;49.738;9.004;2023-04-03T00:35:41;100482.31;;;1.59;74.55
75996;BME280;64681;49.738;9.004;2023-04-03T00:38:07;100480.47;;;1.60;74.52
75996;BME280;64681;49.738;9.004;2023-04-03T00:40:39;100491.41;;;1.34;75.39
75996;BME280;64681;49.738;9.004;2023-04-03T00:43:19;100486.31;;;1.27;75.83
75996;BME280;64681;49.738;9.004;2023-04-03T00:45:48;100490.53;;;1.29;75.21
75996;BME280;64681;49.738;9.004;2023-04-03T00:48:20;100490.72;;;1.22;75.86
75996;BME280;64681;49.738;9.004;2023-04-03T00:50:48;100485.19;;;1.06;75.60
75996;BME280;64681;49.738;9.004;2023-04-03T00:53:23;100490.59;;;1.17;75.15
75996;BME280;64681;49.738;9.004;2023-04-03T00:55:52;100493.16;;;1.12;75.75
75996;BME280;64681;49.738;9.004;2023-04-03T00:58:28;100485.09;;;1.01;75.99
75996;BME280;64681;49.738;9.004;2023-04-03T01:00:58;100475.72;;;1.05;75.41
75996;BME280;64681;49.738;9.004;2023-04-03T01:03:25;100475.59;;;0.83;76.66
75996;BME280;64681;49.738;9.004;2023-04-03T01:05:50;100482.72;;;1.00;75.50
75996;BME280;64681;49.738;9.004;2023-04-03T01:08:16;100487.72;;;1.01;75.94
75996;BME280;64681;49.738;9.004;2023-04-03T01:10:42;100485.19;;;1.06;75.67
75996;BME280;64681;49.738;9.004;2023-04-03T01:13:27;100490.47;;;1.06;75.43
75996;BME280;64681;49.738;9.004;2023-04-03T01:15:53;100490.66;;;0.88;76.11
75996;BME280;64681;49.738;9.004;2023-04-03T01:18:20;100490.97;;;0.91;76.08
75996;BME280;64681;49.738;9.004;2023-04-03T01:26:18;100498.59;;;0.76;76.36
75996;BME280;64681;49.738;9.004;2023-04-03T01:28:44;100495.28;;;0.81;75.91
75996;BME280;64681;49.738;9.004;2023-04-03T01:31:52;100497.28;;;0.90;75.70
75996;BME280;64681;49.738;9.004;2023-04-03T01:33:58;100495.34;;;0.86;75.41
75996;BME280;64681;49.738;9.004;2023-04-03T01:36:27;100498.47;;;0.83;75.53
75996;BME280;64681;49.738;9.004;2023-04-03T01:38:54;100488.72;;;0.83;75.30
75996;BME280;64681;49.738;9.004;2023-04-03T01:41:20;100496.06;;;0.81;75.83
75996;BME280;64681;49.738;9.004;2023-04-03T01:43:47;100497.13;;;0.80;75.63
75996;BME280;64681;49.738;9.004;2023-04-03T01:46:14;100502.97;;;0.70;76.20
75996;BME280;64681;49.738;9.004;2023-04-03T01:48:39;100500.81;;;0.67;76.36
75996;BME280;64681;49.738;9.004;2023-04-03T01:51:05;100501.28;;;0.64;76.47
75996;BME280;64681;49.738;9.004;2023-04-03T01:53:31;100497.13;;;0.80;76.17
75996;BME280;64681;49.738;9.004;2023-04-03T01:55:56;100488.44;;;0.51;76.52
75996;BME280;64681;49.738;9.004;2023-04-03T01:58:22;100498.41;;;0.66;76.09
75996;BME280;64681;49.738;9.004;2023-04-03T02:00:48;100495.44;;;0.62;76.01
75996;BME280;64681;49.738;9.004;2023-04-03T02:03:13;100501.34;;;0.40;77.13
75996;BME280;64681;49.738;9.004;2023-04-03T02:05:40;100499.53;;;0.41;77.00
75996;BME280;64681;49.738;9.004;2023-04-03T02:08:05;100502.22;;;0.58;76.14
75996;BME280;64681;49.738;9.004;2023-04-03T02:10:32;100500.78;;;0.79;76.28
75996;BME280;64681;49.738;9.004;2023-04-03T02:12:58;100509.03;;;0.42;77.50
75996;BME280;64681;49.738;9.004;2023-04-03T02:15:23;100502.19;;;0.29;78.01
75996;BME280;64681;49.738;9.004;2023-04-03T02:17:49;100506.72;;;0.45;77.24
75996;BME280;64681;49.738;9.004;2023-04-03T02:20:15;100510.47;;;0.50;76.97
75996;BME280;64681;49.738;9.004;2023-04-03T02:22:40;100515.81;;;0.55;76.60
75996;BME280;64681;49.738;9.004;2023-04-03T02:25:06;100514.53;;;0.17;78.14
75996;BME280;64681;49.738;9.004;2023-04-03T02:27:32;100508.94;;;0.25;77.80
75996;BME280;64681;49.738;9.004;2023-04-03T02:29:57;100503.91;;;0.35;76.64
75996;BME280;64681;49.738;9.004;2023-04-03T02:32:23;100500.06;;;0.14;77.41
75996;BME280;64681;49.738;9.004;2023-04-03T02:34:48;100504.84;;;0.17;77.29
75996;BME280;64681;49.738;9.004;2023-04-03T02:37:14;100506.78;;;0.22;77.36
75996;BME280;64681;49.738;9.004;2023-04-03T02:39:40;100518.56;;;0.19;76.97
75996;BME280;64681;49.738;9.004;2023-04-03T02:42:05;100498.72;;;0.40;76.71
75996;BME280;64681;49.738;9.004;2023-04-03T02:44:31;100505.97;;;0.21;77.23
75996;BME280;64681;49.738;9.004;2023-04-03T02:46:56;100503.81;;;0.18;76.93
75996;BME280;64681;49.738;9.004;2023-04-03T02:49:22;100510.31;;;0.15;76.79
75996;BME280;64681;49.738;9.004;2023-04-03T02:51:47;100498.03;;;0.04;77.50
75996;BME280;64681;49.738;9.004;2023-04-03T02:54:13;100499.53;;;0.00;77.31
75996;BME280;64681;49.738;9.004;2023-04-03T02:56:39;100500.00;;;0.38;77.10
75996;BME280;64681;49.738;9.004;2023-04-03T02:59:04;100490.09;;;0.28;77.54
75996;BME280;64681;49.738;9.004;2023-04-03T03:01:30;100504.97;;;0.10;77.59
75996;BME280;64681;49.738;9.004;2023-04-03T03:03:58;100500.53;;;0.11;77.58
75996;BME280;64681;49.738;9.004;2023-04-03T03:06:24;100505.22;;;0.09;77.35
75996;BME280;64681;49.738;9.004;2023-04-03T03:08:50;100509.13;;;-0.06;78.46
75996;BME280;64681;49.738;9.004;2023-04-03T03:11:15;100502.50;;;0.04;78.89
75996;BME280;64681;49.738;9.004;2023-04-03T03:13:41;100501.56;;;-0.02;79.24
75996;BME280;64681;49.738;9.004;2023-04-03T03:16:07;100502.69;;;0.02;78.68
75996;BME280;64681;49.738;9.004;2023-04-03T03:18:32;100504.22;;;0.39;78.20
75996;BME280;64681;49.738;9.004;2023-04-03T03:21:00;100497.03;;;0.34;78.16
75996;BME280;64681;49.738;9.004;2023-04-03T03:23:28;100492.44;;;0.41;77.68
75996;BME280;64681;49.738;9.004;2023-04-03T03:25:56;100495.78;;;0.37;78.15
75996;BME280;64681;49.738;9.004;2023-04-03T03:28:22;100483.03;;;0.17;78.43
75996;BME280;64681;49.738;9.004;2023-04-03T03:30:48;100493.78;;;0.15;77.99
75996;BME280;64681;49.738;9.004;2023-04-03T03:33:13;100494.19;;;0.24;77.89
75996;BME280;64681;49.738;9.004;2023-04-03T03:35:39;100489.53;;;0.14;77.84
75996;BME280;64681;49.738;9.004;2023-04-03T03:38:05;100485.91;;;0.15;77.61
75996;BME280;64681;49.738;9.004;2023-04-03T03:40:31;100487.81;;;0.20;77.42
75996;BME280;64681;49.738;9.004;2023-04-03T03:42:56;100480.53;;;0.22;77.47
75996;BME280;64681;49.738;9.004;2023-04-03T03:45:22;100485.28;;;0.25;76.97
75996;BME280;64681;49.738;9.004;2023-04-03T03:47:47;100491.66;;;0.00;78.50
75996;BME280;64681;49.738;9.004;2023-04-03T03:50:13;100491.06;;;0.10;77.45
75996;BME280;64681;49.738;9.004;2023-04-03T03:52:38;100489.09;;;0.17;77.30
75996;BME280;64681;49.738;9.004;2023-04-03T03:55:04;100484.78;;;0.11;76.85
75996;BME280;64681;49.738;9.004;2023-04-03T03:57:30;100483.06;;;0.05;77.07
75996;BME280;64681;49.738;9.004;2023-04-03T03:59:55;100489.44;;;0.09;77.19
75996;BME280;64681;49.738;9.004;2023-04-03T04:02:21;100495.41;;;-0.08;77.60
75996;BME280;64681;49.738;9.004;2023-04-03T04:04:48;100489.81;;;0.01;77.30
75996;BME280;64681;49.738;9.004;2023-04-03T04:07:14;100492.53;;;-0.06;77.47
75996;BME280;64681;49.738;9.004;2023-04-03T04:09:39;100491.88;;;-0.25;78.00
75996;BME280;64681;49.738;9.004;2023-04-03T04:12:05;100497.47;;;-0.34;78.64
75996;BME280;64681;49.738;9.004;2023-04-03T04:14:31;100496.25;;;-0.31;78.08
75996;BME280;64681;49.738;9.004;2023-04-03T04:16:56;100497.25;;;-0.44;78.67
75996;BME280;64681;49.738;9.004;2023-04-03T04:19:22;100511.66;;;-0.35;78.23
75996;BME280;64681;49.738;9.004;2023-04-03T04:21:48;100501.34;;;-0.24;77.75
75996;BME280;64681;49.738;9.004;2023-04-03T04:24:13;100497.34;;;-0.15;77.94
75996;BME280;64681;49.738;9.004;2023-04-03T04:26:39;100508.75;;;0.03;77.69
75996;BME280;64681;49.738;9.004;2023-04-03T04:29:04;100507.84;;;-0.15;78.46
75996;BME280;64681;49.738;9.004;2023-04-03T04:31:30;100503.63;;;-0.40;78.70
75996;BME280;64681;49.738;9.004;2023-04-03T04:33:56;100511.28;;;-0.38;78.90
75996;BME280;64681;49.738;9.004;2023-04-03T04:36:21;100512.31;;;-0.27;78.17
75996;BME280;64681;49.738;9.004;2023-04-03T04:38:47;100510.59;;;-0.34;78.10
75996;BME280;64681;49.738;9.004;2023-04-03T04:41:12;100518.47;;;-0.34;78.14
75996;BME280;64681;49.738;9.004;2023-04-03T04:43:38;100514.03;;;-0.33;77.95
75996;BME280;64681;49.738;9.004;2023-04-03T04:46:09;100506.94;;;-0.44;78.26
75996;BME280;64681;49.738;9.004;2023-04-03T04:48:37;100511.28;;;-0.38;78.20
75996;BME280;64681;49.738;9.004;2023-04-03T04:51:03;100516.19;;;-0.42;78.07
75996;BME280;64681;49.738;9.004;2023-04-03T04:53:29;100516.66;;;-0.45;78.88
75996;BME280;64681;49.738;9.004;2023-04-03T04:55:55;100511.63;;;-0.46;78.51
75996;BME280;64681;49.738;9.004;2023-04-03T04:58:21;100511.97;;;-0.31;78.46
75996;BME280;64681;49.738;9.004;2023-04-03T05:00:47;100507.06;;;-0.39;78.43
75996;BME280;64681;49.738;9.004;2023-04-03T05:03:12;100514.94;;;-0.39;78.37
75996;BME280;64681;49.738;9.004;2023-04-03T05:05:38;100520.41;;;-0.29;78.49
75996;BME280;64681;49.738;9.004;2023-04-03T05:08:04;100516.41;;;-0.43;78.65
75996;BME280;64681;49.738;9.004;2023-04-03T05:10:30;100511.97;;;-0.31;78.76
75996;BME280;64681;49.738;9.004;2023-04-03T05:12:57;100524.53;;;-0.33;79.41
75996;BME280;64681;49.738;9.004;2023-04-03T05:15:23;100525.66;;;-0.29;79.73
75996;BME280;64681;49.738;9.004;2023-04-03T05:17:48;100529.97;;;0.01;79.73
75996;BME280;64681;49.738;9.004;2023-04-03T05:20:14;100524.16;;;0.23;79.28
75996;BME280;64681;49.738;9.004;2023-04-03T05:22:40;100524.09;;;0.35;79.21
75996;BME280;64681;49.738;9.004;2023-04-03T05:25:06;100526.56;;;0.53;79.20
75996;BME280;64681;49.738;9.004;2023-04-03T05:27:32;100528.97;;;0.55;78.91
75996;BME280;64681;49.738;9.004;2023-04-03T05:29:57;100528.72;;;0.68;78.08
75996;BME280;64681;49.738;9.004;2023-04-03T05:32:23;100531.09;;;0.70;77.73
75996;BME280;64681;49.738;9.004;2023-04-03T05:34:50;100528.09;;;0.78;77.21
75996;BME280;64681;49.738;9.004;2023-04-03T05:37:17;100539.59;;;0.89;77.37
75996;BME280;64681;49.738;9.004;2023-04-03T05:39:42;100538.00;;;1.05;77.05
75996;BME280;64681;49.738;9.004;2023-04-03T05:42:08;100537.56;;;1.25;76.34
75996;BME280;64681;49.738;9.004;2023-04-03T05:44:34;100539.25;;;1.31;76.34
75996;BME280;64681;49.738;9.004;2023-04-03T05:47:00;100547.53;;;1.23;76.30
75996;BME280;64681;49.738;9.004;2023-04-03T05:49:26;100553.78;;;1.34;76.33
75996;BME280;64681;49.738;9.004;2023-04-03T05:51:51;100548.09;;;1.42;75.91
75996;BME280;64681;49.738;9.004;2023-04-03T05:54:28;100562.38;;;1.46;75.59
75996;BME280;64681;49.738;9.004;2023-04-03T05:56:54;100562.25;;;1.53;76.54
75996;BME280;64681;49.738;9.004;2023-04-03T05:59:20;100559.66;;;1.75;76.93
75996;BME280;64681;49.738;9.004;2023-04-03T06:01:47;100557.16;;;2.02;75.60
75996;BME280;64681;49.738;9.004;2023-04-03T06:04:14;100562.38;;;2.19;76.45
75996;BME280;64681;49.738;9.004;2023-04-03T06:06:52;100565.84;;;2.64;76.09
75996;BME280;64681;49.738;9.004;2023-04-03T06:09:20;100568.25;;;2.93;76.72
75996;BME280;64681;49.738;9.004;2023-04-03T06:11:46;100565.91;;;3.57;71.40
75996;BME280;64681;49.738;9.004;2023-04-03T06:14:12;100572.00;;;3.57;72.12
75996;BME280;64681;49.738;9.004;2023-04-03T06:16:38;100562.22;;;3.90;69.64
75996;BME280;64681;49.738;9.004;2023-04-03T06:19:05;100573.75;;;4.22;66.01
75996;BME280;64681;49.738;9.004;2023-04-03T06:21:31;100572.13;;;4.16;66.12
75996;BME280;64681;49.738;9.004;2023-04-03T06:23:57;100565.88;;;4.32;64.20
75996;BME280;64681;49.738;9.004;2023-04-03T06:26:23;100574.19;;;4.08;65.84
75996;BME280;64681;49.738;9.004;2023-04-03T06:28:49;100565.16;;;3.99;66.21
75996;BME280;64681;49.738;9.004;2023-04-03T06:31:15;100580.88;;;4.21;65.82
75996;BME280;64681;49.738;9.004;2023-04-03T06:33:40;100575.56;;;4.16;67.39
75996;BME280;64681;49.738;9.004;2023-04-03T06:36:06;100571.72;;;4.44;66.77
75996;BME280;64681;49.738;9.004;2023-04-03T06:38:33;100579.66;;;4.44;65.25
75996;BME280;64681;49.738;9.004;2023-04-03T06:40:59;100576.31;;;4.59;65.11
75996;BME280;64681;49.738;9.004;2023-04-03T06:43:25;100581.28;;;4.51;65.53
75996;BME280;64681;49.738;9.004;2023-04-03T06:45:51;100578.88;;;3.96;66.93
75996;BME280;64681;49.738;9.004;2023-04-03T06:48:17;100584.72;;;3.98;67.33
75996;BME280;64681;49.738;9.004;2023-04-03T06:50:42;100580.75;;;4.01;67.44
75996;BME280;64681;49.738;9.004;2023-04-03T06:53:08;100587.81;;;4.38;66.79
75996;BME280;64681;49.738;9.004;2023-04-03T06:55:34;100565.16;;;4.57;66.14
75996;BME280;64681;49.738;9.004;2023-04-03T06:58:00;100562.06;;;4.86;65.75
75996;BME280;64681;49.738;9.004;2023-04-03T07:00:25;100584.66;;;5.30;64.59
75996;BME280;64681;49.738;9.004;2023-04-03T07:02:51;100587.81;;;5.63;63.55
75996;BME280;64681;49.738;9.004;2023-04-03T07:05:17;100588.38;;;5.50;64.32
75996;BME280;64681;49.738;9.004;2023-04-03T07:07:43;100597.34;;;5.80;63.93
75996;BME280;64681;49.738;9.004;2023-04-03T07:10:08;100599.47;;;6.14;62.26
75996;BME280;64681;49.738;9.004;2023-04-03T07:12:35;100597.28;;;6.37;62.33
75996;BME280;64681;49.738;9.004;2023-04-03T07:15:01;100596.63;;;6.65;61.38
75996;BME280;64681;49.738;9.004;2023-04-03T07:17:26;100604.25;;;6.82;61.59
75996;BME280;64681;49.738;9.004;2023-04-03T07:19:52;100592.53;;;6.94;60.78
75996;BME280;64681;49.738;9.004;2023-04-03T07:22:18;100591.09;;;7.12;54.09
75996;BME280;64681;49.738;9.004;2023-04-03T07:24:44;100599.44;;;6.95;55.14
75996;BME280;64681;49.738;9.004;2023-04-03T07:27:10;100612.22;;;5.91;57.32
75996;BME280;64681;49.738;9.004;2023-04-03T07:29:38;100609.44;;;6.48;55.14
75996;BME280;64681;49.738;9.004;2023-04-03T07:32:05;100610.13;;;6.74;52.93
75996;BME280;64681;49.738;9.004;2023-04-03T07:34:32;100610.59;;;6.11;56.10
75996;BME280;64681;49.738;9.004;2023-04-03T07:36:58;100609.28;;;5.93;54.67
75996;BME280;64681;49.738;9.004;2023-04-03T07:39:26;100613.00;;;5.86;55.90
75996;BME280;64681;49.738;9.004;2023-04-03T07:41:51;100608.63;;;6.53;53.29
75996;BME280;64681;49.738;9.004;2023-04-03T07:44:17;100620.66;;;5.42;56.74
75996;BME280;64681;49.738;9.004;2023-04-03T07:46:43;100620.44;;;5.79;54.19
75996;BME280;64681;49.738;9.004;2023-04-03T07:49:09;100621.75;;;5.46;55.61
75996;BME280;64681;49.738;9.004;2023-04-03T07:51:34;100613.78;;;5.30;54.14
75996;BME280;64681;49.738;9.004;2023-04-03T07:54:00;100618.28;;;5.40;54.04
75996;BME280;64681;49.738;9.004;2023-04-03T07:56:26;100623.63;;;5.66;52.99
75996;BME280;64681;49.738;9.004;2023-04-03T07:58:51;100607.97;;;5.75;52.77
75996;BME280;64681;49.738;9.004;2023-04-03T08:01:17;100630.47;;;5.20;54.30
75996;BME280;64681;49.738;9.004;2023-04-03T08:03:43;100620.41;;;5.33;52.96
75996;BME280;64681;49.738;9.004;2023-04-03T08:06:09;100614.59;;;5.46;53.17
75996;BME280;64681;49.738;9.004;2023-04-03T08:08:34;100609.84;;;5.43;53.71
75996;BME280;64681;49.738;9.004;2023-04-03T08:11:01;100618.06;;;5.78;52.56
75996;BME280;64681;49.738;9.004;2023-04-03T08:13:29;100620.66;;;5.16;53.62
75996;BME280;64681;49.738;9.004;2023-04-03T08:15:56;100625.25;;;4.67;55.55
75996;BME280;64681;49.738;9.004;2023-04-03T08:18:23;100616.59;;;4.87;55.60
75996;BME280;64681;49.738;9.004;2023-04-03T08:20:51;100616.72;;;5.96;50.83
75996;BME280;64681;49.738;9.004;2023-04-03T08:23:18;100618.84;;;5.42;52.97
75996;BME280;64681;49.738;9.004;2023-04-03T08:25:44;100620.56;;;4.90;54.30
75996;BME280;64681;49.738;9.004;2023-04-03T08:28:10;100617.25;;;5.57;53.00
75996;BME280;64681;49.738;9.004;2023-04-03T08:30:39;100620.13;;;5.24;55.21
75996;BME280;64681;49.738;9.004;2023-04-03T08:33:06;100623.84;;;6.11;51.36
75996;BME280;64681;49.738;9.004;2023-04-03T08:35:32;100614.47;;;7.10;49.26
75996;BME280;64681;49.738;9.004;2023-04-03T08:37:58;100612.47;;;5.69;50.57
75996;BME280;64681;49.738;9.004;2023-04-03T08:40:24;100613.53;;;5.42;50.43
75996;BME280;64681;49.738;9.004;2023-04-03T08:50:51;100609.13;;;7.55;46.44
75996;BME280;64681;49.738;9.004;2023-04-03T08:53:25;100619.56;;;8.34;45.67
75996;BME280;64681;49.738;9.004;2023-04-03T08:55:54;100611.03;;;9.38;42.08
75996;BME280;64681;49.738;9.004;2023-04-03T08:58:57;100614.72;;;9.04;41.84
75996;BME280;64681;49.738;9.004;2023-04-03T09:03:56;100611.03;;;7.09;46.58
75996;BME280;64681;49.738;9.004;2023-04-03T09:06:31;100607.59;;;8.07;44.83
75996;BME280;64681;49.738;9.004;2023-04-03T09:16:56;100609.63;;;7.22;44.52
75996;BME280;64681;49.738;9.004;2023-04-03T09:19:50;100613.00;;;7.68;44.14
75996;BME280;64681;49.738;9.004;2023-04-03T09:22:24;100609.81;;;6.91;45.76
75996;BME280;64681;49.738;9.004;2023-04-03T09:27:24;100609.94;;;6.55;45.02
75996;BME280;64681;49.738;9.004;2023-04-03T09:29:54;100606.66;;;7.64;44.68
75996;BME280;64681;49.738;9.004;2023-04-03T09:32:33;100603.75;;;8.19;42.56
75996;BME280;64681;49.738;9.004;2023-04-03T09:35:04;100606.13;;;8.45;41.47
75996;BME280;64681;49.738;9.004;2023-04-03T09:37:44;100613.63;;;8.67;41.53
75996;BME280;64681;49.738;9.004;2023-04-03T09:42:59;100597.63;;;7.94;42.57
75996;BME280;64681;49.738;9.004;2023-04-03T09:50:30;100597.06;;;8.46;41.67
75996;BME280;64681;49.738;9.004;2023-04-03T09:52:56;100604.16;;;8.31;41.17
75996;BME280;64681;49.738;9.004;2023-04-03T09:55:26;100598.00;;;8.06;43.50
75996;BME280;64681;49.738;9.004;2023-04-03T09:57:59;100597.97;;;7.53;44.78
75996;BME280;64681;49.738;9.004;2023-04-03T10:00:36;100601.66;;;7.86;44.55
75996;BME280;64681;49.738;9.004;2023-04-03T10:03:03;100597.06;;;6.93;46.26
75996;BME280;64681;49.738;9.004;2023-04-03T10:05:36;100599.16;;;6.96;45.87
75996;BME280;64681;49.738;9.004;2023-04-03T10:10:37;100607.63;;;7.38;44.30
75996;BME280;64681;49.738;9.004;2023-04-03T10:13:12;100599.25;;;7.60;44.00
75996;BME280;64681;49.738;9.004;2023-04-03T10:15:48;100598.31;;;8.05;43.70
75996;BME280;64681;49.738;9.004;2023-04-03T10:18:38;100594.34;;;8.27;43.86
75996;BME280;64681;49.738;9.004;2023-04-03T10:21:18;100591.16;;;8.00;43.84
75996;BME280;64681;49.738;9.004;2023-04-03T10:23:54;100593.94;;;7.60;45.20
75996;BME280;64681;49.738;9.004;2023-04-03T10:27:02;100595.06;;;7.49;45.76
75996;BME280;64681;49.738;9.004;2023-04-03T10:32:44;100600.38;;;7.54;45.34
75996;BME280;64681;49.738;9.004;2023-04-03T10:38:40;100590.78;;;7.83;44.74
75996;BME280;64681;49.738;9.004;2023-04-03T10:41:07;100596.53;;;7.66;45.48
75996;BME280;64681;49.738;9.004;2023-04-03T10:43:54;100592.53;;;7.68;45.41
75996;BME280;64681;49.738;9.004;2023-04-03T10:46:30;100597.53;;;7.75;45.25
75996;BME280;64681;49.738;9.004;2023-04-03T10:52:06;100589.53;;;7.75;44.54
75996;BME280;64681;49.738;9.004;2023-04-03T10:54:41;100582.88;;;8.07;43.79
75996;BME280;64681;49.738;9.004;2023-04-03T10:57:10;100586.44;;;7.63;44.50
75996;BME280;64681;49.738;9.004;2023-04-03T10:59:53;100578.22;;;8.18;42.61
75996;BME280;64681;49.738;9.004;2023-04-03T11:02:40;100579.47;;;7.72;44.07
75996;BME280;64681;49.738;9.004;2023-04-03T11:08:05;100580.09;;;6.84;47.55
75996;BME280;64681;49.738;9.004;2023-04-03T11:10:42;100589.38;;;7.32;46.45
75996;BME280;64681;49.738;9.004;2023-04-03T11:15:42;100579.06;;;8.13;44.69
75996;BME280;64681;49.738;9.004;2023-04-03T11:18:15;100564.00;;;8.03;43.45
75996;BME280;64681;49.738;9.004;2023-04-03T11:23:32;100575.00;;;8.45;43.22
75996;BME280;64681;49.738;9.004;2023-04-03T11:26:18;100578.72;;;8.68;41.55
75996;BME280;64681;49.738;9.004;2023-04-03T11:28:44;100583.81;;;8.65;43.70
75996;BME280;64681;49.738;9.004;2023-04-03T11:31:33;100577.75;;;7.22;45.14
75996;BME280;64681;49.738;9.004;2023-04-03T11:34:31;100573.34;;;7.42;44.73
75996;BME280;64681;49.738;9.004;2023-04-03T11:37:01;100570.25;;;7.64;43.11
75996;BME280;64681;49.738;9.004;2023-04-03T11:39:35;100560.25;;;8.96;42.02
75996;BME280;64681;49.738;9.004;2023-04-03T11:42:42;100556.34;;;10.02;40.42
75996;BME280;64681;49.738;9.004;2023-04-03T11:48:04;100563.47;;;9.12;42.17
75996;BME280;64681;49.738;9.004;2023-04-03T12:24:33;100553.53;;;7.58;42.49
75996;BME280;64681;49.738;9.004;2023-04-03T12:48:29;100518.06;;;7.73;39.52
75996;BME280;64681;49.738;9.004;2023-04-03T12:50:58;100524.06;;;7.84;41.14
75996;BME280;64681;49.738;9.004;2023-04-03T12:53:32;100521.25;;;7.70;40.97
75996;BME280;64681;49.738;9.004;2023-04-03T12:58:53;100515.63;;;7.48;42.27
75996;BME280;64681;49.738;9.004;2023-04-03T13:01:26;100503.16;;;7.72;41.24
75996;BME280;64681;49.738;9.004;2023-04-03T13:03:55;100503.34;;;7.52;41.76
75996;BME280;64681;49.738;9.004;2023-04-03T13:06:28;100512.97;;;7.48;39.64
75996;BME280;64681;49.738;9.004;2023-04-03T13:08:59;100503.41;;;7.47;39.74
75996;BME280;64681;49.738;9.004;2023-04-03T13:11:32;100499.97;;;7.46;39.56
75996;BME280;64681;49.738;9.004;2023-04-03T13:14:05;100503.78;;;7.35;41.43
75996;BME280;64681;49.738;9.004;2023-04-03T13:16:32;100508.66;;;6.88;41.79
75996;BME280;64681;49.738;9.004;2023-04-03T13:18:58;100503.09;;;6.39;41.59
75996;BME280;64681;49.738;9.004;2023-04-03T13:21:28;100493.56;;;6.83;41.41
75996;BME280;64681;49.738;9.004;2023-04-03T13:23:57;100500.13;;;6.91;42.18
75996;BME280;64681;49.738;9.004;2023-04-03T13:26:28;100501.13;;;7.00;40.81
75996;BME280;64681;49.738;9.004;2023-04-03T13:29:05;100501.06;;;7.40;39.50
75996;BME280;64681;49.738;9.004;2023-04-03T13:31:36;100490.88;;;7.52;37.98
75996;BME280;64681;49.738;9.004;2023-04-03T13:36:38;100494.06;;;8.03;39.28
75996;BME280;64681;49.738;9.004;2023-04-03T13:41:41;100479.41;;;8.24;39.20
75996;BME280;64681;49.738;9.004;2023-04-03T13:46:56;100480.06;;;7.92;38.92
75996;BME280;64681;49.738;9.004;2023-04-03T13:51:57;100466.41;;;9.60;36.87
75996;BME280;64681;49.738;9.004;2023-04-03T13:54:35;100469.88;;;9.75;36.80
75996;BME280;64681;49.738;9.004;2023-04-03T13:57:01;100469.50;;;9.54;37.00
75996;BME280;64681;49.738;9.004;2023-04-03T13:59:29;100469.09;;;8.80;37.80
75996;BME280;64681;49.738;9.004;2023-04-03T14:04:24;100473.13;;;8.39;37.34
75996;BME280;64681;49.738;9.004;2023-04-03T14:06:51;100473.44;;;8.57;39.35
75996;BME280;64681;49.738;9.004;2023-04-03T14:09:18;100466.66;;;8.84;38.54
75996;BME280;64681;49.738;9.004;2023-04-03T14:11:47;100467.69;;;8.69;37.98
75996;BME280;64681;49.738;9.004;2023-04-03T14:14:17;100468.75;;;8.68;38.90
75996;BME280;64681;49.738;9.004;2023-04-03T14:16:47;100471.50;;;8.19;41.85
75996;BME280;64681;49.738;9.004;2023-04-03T14:19:31;100473.22;;;8.10;40.35
75996;BME280;64681;49.738;9.004;2023-04-03T14:21:58;100468.66;;;8.35;38.76
75996;BME280;64681;49.738;9.004;2023-04-03T14:24:24;100473.09;;;7.48;41.26
75996;BME280;64681;49.738;9.004;2023-04-03T14:26:52;100471.78;;;7.99;38.74
75996;BME280;64681;49.738;9.004;2023-04-03T14:29:19;100465.16;;;7.96;37.57
75996;BME280;64681;49.738;9.004;2023-04-03T14:31:49;100458.25;;;7.71;40.92
75996;BME280;64681;49.738;9.004;2023-04-03T14:34:16;100454.25;;;7.73;38.24
75996;BME280;64681;49.738;9.004;2023-04-03T14:36:43;100446.59;;;7.91;38.28
75996;BME280;64681;49.738;9.004;2023-04-03T14:39:18;100438.63;;;8.10;38.94
75996;BME280;64681;49.738;9.004;2023-04-03T14:41:45;100443.31;;;8.18;38.56
75996;BME280;64681;49.738;9.004;2023-04-03T14:44:10;100440.06;;;7.78;39.16
75996;BME280;64681;49.738;9.004;2023-04-03T14:46:39;100451.00;;;7.76;38.93
75996;BME280;64681;49.738;9.004;2023-04-03T14:49:20;100448.16;;;7.43;40.47
75996;BME280;64681;49.738;9.004;2023-04-03T14:51:46;100451.72;;;8.06;39.90
75996;BME280;64681;49.738;9.004;2023-04-03T14:54:18;100440.25;;;7.87;38.57
75996;BME280;64681;49.738;9.004;2023-04-03T14:56:47;100435.34;;;7.51;39.75
75996;BME280;64681;49.738;9.004;2023-04-03T14:59:13;100435.75;;;7.39;38.65
75996;BME280;64681;49.738;9.004;2023-04-03T15:01:40;100436.41;;;7.50;38.73
75996;BME280;64681;49.738;9.004;2023-04-03T15:04:14;100434.06;;;7.72;39.01
75996;BME280;64681;49.738;9.004;2023-04-03T15:06:40;100438.50;;;8.01;38.98
75996;BME280;64681;49.738;9.004;2023-04-03T15:09:22;100443.41;;;8.13;38.03
75996;BME280;64681;49.738;9.004;2023-04-03T15:11:50;100438.81;;;7.95;38.13
75996;BME280;64681;49.738;9.004;2023-04-03T15:14:17;100438.38;;;7.87;38.39
75996;BME280;64681;49.738;9.004;2023-04-03T15:16:43;100430.66;;;8.10;38.65